createdAt,value
2022-09-28T00:00:16.321Z,99624.72
2022-09-28T00:02:45.813Z,99624.72
2022-09-28T00:05:14.779Z,99624.72
2022-09-28T00:07:44.949Z,99620.31
2022-09-28T00:10:17.391Z,99619.56
2022-09-28T00:12:46.106Z,99620.41
2022-09-28T00:15:14.799Z,99623.16
2022-09-28T00:17:46.229Z,99623.38
2022-09-28T00:20:19.371Z,99636.22
2022-09-28T00:22:47.989Z,99628.63
2022-09-28T00:25:22.249Z,99630.28
2022-09-28T00:27:52.029Z,99628.69
2022-09-28T00:30:20.599Z,99618.59
2022-09-28T00:32:52.147Z,99632.16
2022-09-28T00:35:20.858Z,99628.69
2022-09-28T00:37:51.179Z,99633.22
2022-09-28T00:40:22.455Z,99636.16
2022-09-28T00:42:51.004Z,99634.38
2022-09-28T00:45:19.719Z,99636.16
2022-09-28T00:47:54.230Z,99635.00
2022-09-28T00:50:28.319Z,99630.00
2022-09-28T00:53:03.419Z,99632.63
2022-09-28T00:55:41.999Z,99630.81
2022-09-28T00:58:15.822Z,99628.44
2022-09-28T01:00:48.092Z,99636.16
2022-09-28T01:03:17.889Z,99626.16
2022-09-28T01:05:48.729Z,99621.28
2022-09-28T01:08:23.149Z,99630.56
2022-09-28T01:10:55.530Z,99625.47
2022-09-28T01:13:26.130Z,99633.31
2022-09-28T01:16:08.351Z,99632.47
2022-09-28T01:18:44.850Z,99627.34
2022-09-28T01:21:22.201Z,99636.16
2022-09-28T01:24:18.531Z,99641.38
2022-09-28T01:27:02.200Z,99637.81
2022-09-28T01:29:40.500Z,99640.56
2022-09-28T01:32:18.419Z,99644.81
2022-09-28T01:34:56.039Z,99638.84
2022-09-28T01:37:35.638Z,99635.56
2022-09-28T01:40:13.589Z,99634.81
2022-09-28T01:42:48.819Z,99638.50
2022-09-28T01:45:27.472Z,99639.91
2022-09-28T01:47:59.791Z,99634.59
2022-09-28T01:50:31.549Z,99636.59
2022-09-28T01:53:05.919Z,99636.84
2022-09-28T01:55:37.949Z,99635.16
2022-09-28T01:58:15.119Z,99629.00
2022-09-28T02:00:49.029Z,99633.63
2022-09-28T02:03:23.499Z,99625.66
2022-09-28T02:05:58.839Z,99626.00
2022-09-28T02:08:31.590Z,99627.78
2022-09-28T02:11:10.029Z,99624.22
2022-09-28T02:13:49.560Z,99625.03
2022-09-28T02:16:23.946Z,99624.31
2022-09-28T02:18:53.409Z,99632.06
2022-09-28T02:21:31.060Z,99628.84
2022-09-28T02:24:03.088Z,99626.47
2022-09-28T02:26:36.902Z,99623.63
2022-09-28T02:29:06.969Z,99637.50
2022-09-28T02:31:36.378Z,99629.06
2022-09-28T02:34:09.200Z,99634.16
2022-09-28T02:36:40.549Z,99628.94
2022-09-28T02:39:15.378Z,99621.44
2022-09-28T02:41:56.492Z,99613.00
2022-09-28T02:44:54.929Z,99630.22
2022-09-28T02:47:33.346Z,99619.16
2022-09-28T02:50:14.568Z,99610.63
2022-09-28T02:53:04.819Z,99617.28
2022-09-28T02:55:46.558Z,99614.28
2022-09-28T02:58:25.750Z,99619.38
2022-09-28T03:01:06.029Z,99616.06
2022-09-28T03:03:50.129Z,99612.84
2022-09-28T03:06:24.760Z,99617.00
2022-09-28T03:09:02.029Z,99613.69
2022-09-28T03:11:39.350Z,99619.00
2022-09-28T03:14:08.632Z,99622.44
2022-09-28T03:16:45.096Z,99616.41
2022-09-28T03:19:15.160Z,99616.53
2022-09-28T03:21:43.809Z,99612.34
2022-09-28T03:24:12.639Z,99620.91
2022-09-28T03:26:42.219Z,99616.00
2022-09-28T03:29:16.040Z,99614.44
2022-09-28T03:31:51.254Z,99619.44
2022-09-28T03:34:19.959Z,99616.13
2022-09-28T03:36:48.540Z,99624.69
2022-09-28T03:39:17.302Z,99621.59
2022-09-28T03:41:46.073Z,99631.66
2022-09-28T03:44:17.439Z,99623.47
2022-09-28T03:46:48.329Z,99631.66
2022-09-28T03:49:23.220Z,99619.28
2022-09-28T03:51:51.979Z,99623.47
2022-09-28T03:54:22.151Z,99627.34
2022-09-28T03:56:55.539Z,99620.13
2022-09-28T03:59:24.159Z,99625.13
2022-09-28T04:01:54.423Z,99627.97
2022-09-28T04:04:22.969Z,99638.41
2022-09-28T04:06:51.459Z,99638.41
2022-09-28T04:09:20.219Z,99638.53
2022-09-28T04:12:03.476Z,99631.66
2022-09-28T04:14:33.050Z,99636.75
2022-09-28T04:17:03.048Z,99634.50
2022-09-28T04:19:31.589Z,99637.81
2022-09-28T04:22:02.100Z,99645.41
2022-09-28T04:24:32.209Z,99634.50
2022-09-28T04:27:14.493Z,99637.19
2022-09-28T04:29:47.660Z,99637.31
2022-09-28T04:32:17.840Z,99633.75
2022-09-28T04:34:46.419Z,99641.47
2022-09-28T04:37:21.430Z,99634.81
2022-09-28T04:39:50.049Z,99639.72
2022-09-28T04:42:25.253Z,99643.38
2022-09-28T04:44:53.900Z,99646.81
2022-09-28T04:47:24.360Z,99644.19
2022-09-28T04:49:52.999Z,99641.91
2022-09-28T04:52:24.140Z,99650.00
2022-09-28T04:54:52.678Z,99640.16
2022-09-28T04:57:24.786Z,99650.59
2022-09-28T04:59:53.430Z,99648.22
2022-09-28T05:02:26.674Z,99649.88
2022-09-28T05:04:59.139Z,99650.09
2022-09-28T05:07:28.339Z,99650.09
2022-09-28T05:09:56.999Z,99645.81
2022-09-28T05:12:25.878Z,99649.88
2022-09-28T05:14:57.359Z,99649.03
2022-09-28T05:17:26.208Z,99653.22
2022-09-28T05:19:58.509Z,99644.28
2022-09-28T05:22:27.108Z,99636.47
2022-09-28T05:24:56.239Z,99651.91
2022-09-28T05:27:25.039Z,99649.44
2022-09-28T05:29:53.668Z,99649.44
2022-09-28T05:32:22.612Z,99650.25
2022-09-28T05:34:51.228Z,99650.25
2022-09-28T05:37:23.009Z,99649.31
2022-09-28T05:39:51.610Z,99637.53
2022-09-28T05:42:23.129Z,99641.91
2022-09-28T05:44:53.348Z,99648.81
2022-09-28T05:47:22.459Z,99638.69
2022-09-28T05:49:58.219Z,99644.75
2022-09-28T05:52:27.879Z,99650.81
2022-09-28T05:55:00.650Z,99640.47
2022-09-28T05:57:32.357Z,99640.47
2022-09-28T06:00:01.053Z,99646.53
2022-09-28T06:02:33.709Z,99643.41
2022-09-28T06:05:02.429Z,99651.88
2022-09-28T06:07:33.508Z,99650.09
2022-09-28T06:10:07.620Z,99651.75
2022-09-28T06:12:38.789Z,99644.84
2022-09-28T06:15:11.024Z,99650.91
2022-09-28T06:17:43.990Z,99657.56
2022-09-28T06:20:13.133Z,99657.34
2022-09-28T06:22:44.169Z,99653.31
2022-09-28T06:25:16.229Z,99644.84
2022-09-28T06:27:47.009Z,99646.28
2022-09-28T06:30:16.039Z,99647.25
2022-09-28T06:32:44.639Z,99647.69
2022-09-28T06:35:15.793Z,99654.69
2022-09-28T06:37:47.701Z,99658.97
2022-09-28T06:40:17.648Z,99652.34
2022-09-28T06:42:47.599Z,99665.53
2022-09-28T06:45:16.270Z,99664.31
2022-09-28T06:47:45.094Z,99662.84
2022-09-28T06:50:14.840Z,99671.41
2022-09-28T06:52:44.550Z,99662.75
2022-09-28T06:55:14.769Z,99657.63
2022-09-28T06:57:45.131Z,99672.03
2022-09-28T07:00:15.169Z,99669.75
2022-09-28T07:02:53.490Z,99686.88
2022-09-28T07:05:26.927Z,99684.25
2022-09-28T07:07:59.390Z,99683.53
2022-09-28T07:10:30.652Z,99680.59
2022-09-28T07:13:07.324Z,99687.81
2022-09-28T07:15:37.499Z,99690.22
2022-09-28T07:18:08.392Z,99687.25
2022-09-28T07:20:50.461Z,99689.78
2022-09-28T07:23:23.638Z,99696.16
2022-09-28T07:25:53.779Z,99693.03
2022-09-28T07:28:22.699Z,99695.88
2022-09-28T07:30:51.689Z,99695.66
2022-09-28T07:33:20.290Z,99696.28
2022-09-28T07:35:55.949Z,99696.69
2022-09-28T07:38:26.299Z,99700.75
2022-09-28T07:41:21.819Z,99702.66
2022-09-28T07:43:51.373Z,99695.88
2022-09-28T07:46:23.545Z,99702.44
2022-09-28T07:48:52.329Z,99699.84
2022-09-28T07:51:23.982Z,99705.88
2022-09-28T07:53:54.409Z,99699.19
2022-09-28T07:56:25.629Z,99705.06
2022-09-28T07:58:54.469Z,99695.66
2022-09-28T08:01:25.786Z,99706.81
2022-09-28T08:03:58.409Z,99703.75
2022-09-28T08:06:28.361Z,99710.69
2022-09-28T08:08:57.289Z,99703.91
2022-09-28T08:11:29.040Z,99699.88
2022-09-28T08:13:58.440Z,99704.75
2022-09-28T08:16:39.167Z,99699.88
2022-09-28T08:19:07.710Z,99695.88
2022-09-28T08:21:45.399Z,99699.31
2022-09-28T08:24:16.431Z,99697.97
2022-09-28T08:26:46.569Z,99707.03
2022-09-28T08:29:15.590Z,99705.06
2022-09-28T08:31:44.200Z,99702.53
2022-09-28T08:34:12.880Z,99707.19
2022-09-28T08:36:41.620Z,99698.53
2022-09-28T08:39:11.469Z,99708.06
2022-09-28T08:41:51.149Z,99699.88
2022-09-28T08:44:24.438Z,99686.81
2022-09-28T08:46:57.660Z,99687.56
2022-09-28T08:49:31.659Z,99686.28
2022-09-28T08:52:04.839Z,99690.13
2022-09-28T08:54:41.350Z,99700.25
2022-09-28T08:57:17.120Z,99694.19
2022-09-28T08:59:48.371Z,99699.91
2022-09-28T09:02:22.639Z,99691.34
2022-09-28T09:04:53.028Z,99692.09
2022-09-28T09:07:54.493Z,99692.09
2022-09-28T09:10:46.949Z,99689.13
2022-09-28T09:13:39.979Z,99694.69
2022-09-28T09:16:21.607Z,99697.91
2022-09-28T09:18:57.609Z,99700.91
2022-09-28T09:21:41.010Z,99697.78
2022-09-28T09:24:27.571Z,99691.41
2022-09-28T09:27:07.171Z,99697.03
2022-09-28T09:29:52.761Z,99690.75
2022-09-28T09:32:40.629Z,99694.78
2022-09-28T09:35:29.689Z,99683.50
2022-09-28T09:38:17.598Z,99691.34
2022-09-28T09:40:59.795Z,99685.16
2022-09-28T09:43:49.119Z,99679.50
2022-09-28T09:46:23.936Z,99683.66
2022-09-28T09:48:57.315Z,99691.50
2022-09-28T09:51:34.829Z,99692.78
2022-09-28T09:54:09.235Z,99689.50
2022-09-28T09:56:41.989Z,99691.97
2022-09-28T09:59:16.645Z,99689.16
2022-09-28T10:01:47.488Z,99681.75
2022-09-28T10:04:22.421Z,99683.44
2022-09-28T10:06:54.409Z,99683.81
2022-09-28T10:09:27.969Z,99677.41
2022-09-28T10:11:56.790Z,99678.50
2022-09-28T10:14:26.959Z,99676.41
2022-09-28T10:16:59.464Z,99670.09
2022-09-28T10:19:34.760Z,99675.09
2022-09-28T10:22:06.849Z,99667.75
2022-09-28T10:24:40.233Z,99652.06
2022-09-28T10:27:14.462Z,99662.38
2022-09-28T10:29:52.369Z,99670.00
2022-09-28T10:32:28.019Z,99661.94
2022-09-28T10:35:21.889Z,99662.56
2022-09-28T10:37:56.569Z,99665.88
2022-09-28T10:40:33.351Z,99651.94
2022-09-28T10:43:04.359Z,99652.91
2022-09-28T10:45:38.613Z,99651.22
2022-09-28T10:48:19.489Z,99651.94
2022-09-28T10:51:01.629Z,99653.63
2022-09-28T10:53:30.409Z,99651.94
2022-09-28T10:56:03.414Z,99648.63
2022-09-28T10:58:39.639Z,99646.97
2022-09-28T11:01:15.586Z,99652.78
2022-09-28T11:03:57.029Z,99651.94
2022-09-28T11:06:30.879Z,99641.84
2022-09-28T11:09:05.770Z,99644.47
2022-09-28T11:11:42.239Z,99647.56
2022-09-28T11:14:26.572Z,99643.03
2022-09-28T11:17:20.619Z,99645.28
2022-09-28T11:19:50.990Z,99631.84
2022-09-28T11:22:29.080Z,99625.56
2022-09-28T11:25:28.636Z,99623.91
2022-09-28T11:28:01.089Z,99619.84
2022-09-28T11:30:33.144Z,99621.03
2022-09-28T11:33:06.555Z,99616.28
2022-09-28T11:35:47.810Z,99614.38
2022-09-28T11:38:42.122Z,99608.19
2022-09-28T11:41:27.419Z,99604.63
2022-09-28T11:44:35.440Z,99600.09
2022-09-28T11:47:33.860Z,99599.28
2022-09-28T11:50:26.070Z,99605.44
2022-09-28T11:53:15.559Z,99593.66
2022-09-28T11:55:59.019Z,99589.25
2022-09-28T11:58:36.569Z,99589.38
2022-09-28T12:01:25.079Z,99597.69
2022-09-28T12:04:01.059Z,99593.31
2022-09-28T12:06:39.898Z,99590.56
2022-09-28T12:09:18.851Z,99586.03
2022-09-28T12:11:54.959Z,99587.69
2022-09-28T12:14:29.279Z,99579.94
2022-09-28T12:17:07.692Z,99581.41
2022-09-28T12:19:44.969Z,99588.03
2022-09-28T12:22:24.041Z,99573.66
2022-09-28T12:25:00.980Z,99569.22
2022-09-28T12:27:41.540Z,99569.72
2022-09-28T12:30:20.402Z,99573.41
2022-09-28T12:32:54.980Z,99570.78
2022-09-28T12:35:37.579Z,99567.34
2022-09-28T12:38:32.630Z,99561.50
2022-09-28T12:41:11.439Z,99566.13
2022-09-28T12:44:11.249Z,99561.09
2022-09-28T12:46:54.078Z,99550.34
2022-09-28T12:52:35.734Z,99557.00
2022-09-28T12:55:40.859Z,99550.25
2022-09-28T12:58:30.465Z,99546.44
2022-09-28T13:01:14.093Z,99552.38
2022-09-28T13:04:14.629Z,99555.38
2022-09-28T13:06:54.099Z,99549.41
2022-09-28T13:09:31.740Z,99549.28
2022-09-28T13:12:13.429Z,99548.34
2022-09-28T13:15:24.089Z,99545.16
2022-09-28T13:18:02.119Z,99547.03
2022-09-28T13:20:50.989Z,99542.53
2022-09-28T13:23:24.260Z,99542.38
2022-09-28T13:25:57.739Z,99548.44
2022-09-28T13:28:29.259Z,99549.78
2022-09-28T13:31:00.348Z,99543.94
2022-09-28T13:33:39.091Z,99536.19
2022-09-28T13:36:47.868Z,99540.47
2022-09-28T13:39:53.479Z,99541.41
2022-09-28T13:42:30.780Z,99539.50
2022-09-28T13:45:26.480Z,99535.72
2022-09-28T13:48:20.506Z,99532.97
2022-09-28T13:51:16.763Z,99534.53
2022-09-28T13:54:11.160Z,99534.97
2022-09-28T13:56:50.340Z,99535.28
2022-09-28T13:59:24.590Z,99523.97
2022-09-28T14:02:04.204Z,99527.06
2022-09-28T14:04:57.728Z,99523.72
2022-09-28T14:07:48.540Z,99519.63
2022-09-28T14:10:24.803Z,99512.63
2022-09-28T14:12:55.149Z,99514.53
2022-09-28T14:15:45.787Z,99520.09
2022-09-28T14:18:24.960Z,99511.72
2022-09-28T14:21:17.850Z,99513.94
2022-09-28T14:24:22.471Z,99515.22
2022-09-28T14:27:20.580Z,99517.03
2022-09-28T14:29:55.942Z,99514.53
2022-09-28T14:32:27.189Z,99513.06
2022-09-28T14:35:01.391Z,99513.94
2022-09-28T14:37:50.699Z,99511.25
2022-09-28T14:40:45.852Z,99501.84
2022-09-28T14:43:27.897Z,99503.38
2022-09-28T14:46:32.321Z,99531.91
2022-09-28T14:49:09.789Z,99547.50
2022-09-28T14:52:07.539Z,99543.44
2022-09-28T14:54:56.152Z,99536.28
2022-09-28T14:57:34.651Z,99543.44
2022-09-28T15:00:21.710Z,99537.72
2022-09-28T15:02:53.010Z,99563.00
2022-09-28T15:05:26.489Z,99548.47
2022-09-28T15:07:56.393Z,99555.25
2022-09-28T15:10:42.959Z,99560.16
2022-09-28T15:13:26.141Z,99559.50
2022-09-28T15:16:01.019Z,99555.34
2022-09-28T15:19:13.590Z,99561.09
2022-09-28T15:21:49.012Z,99548.81
2022-09-28T15:24:32.019Z,99552.50
2022-09-28T15:27:05.704Z,99544.75
2022-09-28T15:29:35.814Z,99553.13
2022-09-28T15:32:07.069Z,99537.03
2022-09-28T15:34:57.400Z,99552.25
2022-09-28T15:37:40.250Z,99544.75
2022-09-28T15:40:21.934Z,99548.28
2022-09-28T15:42:50.749Z,99547.63
2022-09-28T15:45:32.320Z,99553.66
2022-09-28T15:48:21.649Z,99538.91
2022-09-28T15:51:11.350Z,99544.56
2022-09-28T15:53:44.909Z,99543.25
2022-09-28T15:56:13.654Z,99557.09
2022-09-28T15:58:45.234Z,99554.31
2022-09-28T16:01:36.648Z,99553.03
2022-09-28T16:04:50.999Z,99555.88
2022-09-28T16:07:30.230Z,99551.84
2022-09-28T16:10:01.712Z,99548.97
2022-09-28T16:12:43.630Z,99555.00
2022-09-28T16:15:26.470Z,99550.25
2022-09-28T16:18:07.029Z,99543.56
2022-09-28T16:20:40.621Z,99550.00
2022-09-28T16:23:18.509Z,99555.97
2022-09-28T16:25:54.251Z,99555.00
2022-09-28T16:28:49.289Z,99552.63
2022-09-28T16:31:51.633Z,99549.41
2022-09-28T16:34:25.591Z,99552.63
2022-09-28T16:36:56.390Z,99555.97
2022-09-28T16:39:28.600Z,99565.69
2022-09-28T16:42:02.072Z,99559.16
2022-09-28T16:44:32.099Z,99547.44
2022-09-28T16:47:01.649Z,99558.06
2022-09-28T16:49:33.199Z,99555.31
2022-09-28T16:52:02.149Z,99556.25
2022-09-28T16:54:48.579Z,99564.56
2022-09-28T16:57:18.329Z,99574.25
2022-09-28T16:59:47.159Z,99576.88
2022-09-28T17:02:42.145Z,99563.03
2022-09-28T17:05:09.010Z,99567.56
2022-09-28T17:07:37.661Z,99571.03
2022-09-28T17:10:16.002Z,99570.53
2022-09-28T17:12:47.780Z,99571.88
2022-09-28T17:15:23.939Z,99580.66
2022-09-28T17:17:52.519Z,99575.59
2022-09-28T17:20:28.083Z,99583.56
2022-09-28T17:22:56.481Z,99582.47
2022-09-28T17:25:27.709Z,99585.78
2022-09-28T17:28:00.810Z,99587.13
2022-09-28T17:30:29.339Z,99579.75
2022-09-28T17:32:59.551Z,99590.22
2022-09-28T17:35:34.145Z,99584.66
2022-09-28T17:38:06.160Z,99582.88
2022-09-28T17:40:35.148Z,99591.19
2022-09-28T17:43:09.229Z,99581.09
2022-09-28T17:45:41.251Z,99594.31
2022-09-28T17:48:15.981Z,99589.97
2022-09-28T17:50:47.586Z,99591.94
2022-09-28T17:53:17.879Z,99598.75
2022-09-28T17:55:49.070Z,99595.88
2022-09-28T17:58:20.350Z,99586.44
2022-09-28T18:00:50.449Z,99595.25
2022-09-28T18:03:21.482Z,99599.19
2022-09-28T18:06:00.978Z,99604.09
2022-09-28T18:08:31.009Z,99602.06
2022-09-28T18:11:01.853Z,99613.34
2022-09-28T18:13:30.541Z,99608.50
2022-09-28T18:15:59.442Z,99611.94
2022-09-28T18:18:28.979Z,99616.50
2022-09-28T18:21:02.069Z,99615.09
2022-09-28T18:23:30.709Z,99607.00
2022-09-28T18:25:59.449Z,99614.84
2022-09-28T18:28:31.519Z,99614.72
2022-09-28T18:31:00.381Z,99615.19
2022-09-28T18:36:17.799Z,99610.78
2022-09-28T18:38:46.395Z,99609.56
2022-09-28T18:41:17.049Z,99609.91
2022-09-28T18:43:50.350Z,99612.44
2022-09-28T18:46:26.804Z,99618.75
2022-09-28T18:48:56.309Z,99616.94
2022-09-28T18:51:26.751Z,99614.56
2022-09-28T18:53:58.410Z,99619.47
2022-09-28T18:56:27.158Z,99616.25
2022-09-28T18:58:57.089Z,99626.00
2022-09-28T19:01:29.984Z,99629.59
2022-09-28T19:04:03.823Z,99634.84
2022-09-28T19:06:37.080Z,99623.88
2022-09-28T19:09:09.341Z,99630.53
2022-09-28T19:11:40.488Z,99634.34
2022-09-28T19:14:16.229Z,99634.84
2022-09-28T19:16:44.858Z,99636.72
2022-09-28T19:19:15.615Z,99638.16
2022-09-28T19:21:51.732Z,99645.19
2022-09-28T19:24:21.484Z,99642.19
2022-09-28T19:26:51.149Z,99643.13
2022-09-28T19:29:25.079Z,99645.06
2022-09-28T19:31:57.034Z,99651.56
2022-09-28T19:34:38.449Z,99653.59
2022-09-28T19:37:10.303Z,99657.84
2022-09-28T19:39:39.059Z,99659.03
2022-09-28T19:42:10.410Z,99659.50
2022-09-28T19:44:39.479Z,99656.63
2022-09-28T19:47:10.292Z,99673.50
2022-09-28T19:49:40.309Z,99669.56
2022-09-28T19:52:16.391Z,99673.84
2022-09-28T19:54:57.145Z,99668.13
2022-09-28T19:57:28.103Z,99676.06
2022-09-28T20:00:02.505Z,99672.38
2022-09-28T20:02:32.200Z,99678.59
2022-09-28T20:05:00.830Z,99678.66
2022-09-28T20:07:35.210Z,99685.44
2022-09-28T20:10:03.812Z,99680.88
2022-09-28T20:12:32.651Z,99674.81
2022-09-28T20:15:11.749Z,99679.63
2022-09-28T20:17:40.411Z,99690.56
2022-09-28T20:20:12.169Z,99680.56
2022-09-28T20:22:43.880Z,99683.19
2022-09-28T20:25:12.689Z,99687.75
2022-09-28T20:27:45.620Z,99677.75
2022-09-28T20:30:17.119Z,99683.00
2022-09-28T20:32:49.574Z,99688.56
2022-09-28T20:35:32.072Z,99689.06
2022-09-28T20:38:16.119Z,99706.72
2022-09-28T20:40:45.332Z,99704.22
2022-09-28T20:43:21.510Z,99716.63
2022-09-28T20:45:57.146Z,99702.09
2022-09-28T20:48:27.210Z,99707.09
2022-09-28T20:51:03.530Z,99709.72
2022-09-28T20:53:34.651Z,99710.06
2022-09-28T20:56:04.879Z,99707.59
2022-09-28T20:58:33.759Z,99709.25
2022-09-28T21:01:11.257Z,99709.63
2022-09-28T21:03:40.253Z,99712.84
2022-09-28T21:06:12.249Z,99708.66
2022-09-28T21:08:42.830Z,99710.00
2022-09-28T21:11:11.801Z,99720.63
2022-09-28T21:13:41.719Z,99720.28
2022-09-28T21:16:13.020Z,99714.44
2022-09-28T21:18:42.389Z,99722.16
2022-09-28T21:21:14.658Z,99718.13
2022-09-28T21:23:45.132Z,99724.22
2022-09-28T21:26:16.057Z,99726.69
2022-09-28T21:28:46.140Z,99731.25
2022-09-28T21:31:15.722Z,99727.06
2022-09-28T21:33:44.329Z,99721.34
2022-09-28T21:36:14.299Z,99724.94
2022-09-28T21:38:45.510Z,99734.94
2022-09-28T21:41:14.559Z,99739.09
2022-09-28T21:43:43.083Z,99734.34
2022-09-28T21:46:12.009Z,99727.94
2022-09-28T21:48:40.620Z,99747.00
2022-09-28T21:51:11.679Z,99740.22
2022-09-28T21:53:40.731Z,99736.75
2022-09-28T21:56:13.740Z,99745.66
2022-09-28T21:58:42.742Z,99745.91
2022-09-28T22:01:14.900Z,99741.00
2022-09-28T22:03:45.444Z,99744.56
2022-09-28T22:06:14.499Z,99749.56
2022-09-28T22:08:43.210Z,99750.66
2022-09-28T22:11:15.730Z,99756.72
2022-09-28T22:13:45.930Z,99758.03
2022-09-28T22:16:19.403Z,99762.66
2022-09-28T22:18:48.639Z,99759.34
2022-09-28T22:21:20.310Z,99761.00
2022-09-28T22:23:49.400Z,99757.94
2022-09-28T22:26:21.171Z,99762.19
2022-09-28T22:28:52.629Z,99765.06
2022-09-28T22:31:23.103Z,99773.16
2022-09-28T22:33:54.959Z,99767.19
2022-09-28T22:36:23.979Z,99771.59
2022-09-28T22:38:52.570Z,99776.59
2022-09-28T22:41:23.269Z,99780.28
2022-09-28T22:43:53.195Z,99772.88
2022-09-28T22:46:23.320Z,99769.66
2022-09-28T22:48:54.129Z,99775.63
2022-09-28T22:51:24.589Z,99773.13
2022-09-28T22:53:55.420Z,99775.03
2022-09-28T22:56:27.789Z,99777.06
2022-09-28T22:59:00.650Z,99779.19
2022-09-28T23:01:36.076Z,99783.44
2022-09-28T23:04:06.714Z,99775.81
2022-09-28T23:06:41.559Z,99778.69
2022-09-28T23:09:15.005Z,99775.25
2022-09-28T23:11:45.210Z,99770.84
2022-09-28T23:14:14.565Z,99769.19
2022-09-28T23:16:43.072Z,99776.69
2022-09-28T23:19:11.779Z,99772.41
2022-09-28T23:21:43.057Z,99783.59
2022-09-28T23:24:14.860Z,99778.81
2022-09-28T23:26:48.939Z,99790.00
2022-09-28T23:29:17.509Z,99775.38
2022-09-28T23:31:46.463Z,99783.94
2022-09-28T23:34:15.119Z,99780.00
2022-09-28T23:36:43.839Z,99776.09
2022-09-28T23:39:13.696Z,99777.63
2022-09-28T23:41:42.259Z,99780.22
2022-09-28T23:44:12.449Z,99780.22
2022-09-28T23:46:41.812Z,99782.13
2022-09-28T23:49:10.504Z,99782.13
2022-09-28T23:51:39.519Z,99784.03
2022-09-28T23:54:10.109Z,99782.47
2022-09-28T23:56:38.809Z,99787.72
2022-09-28T23:59:07.521Z,99786.66
